createdAt,value
2019-03-31T00:01:31.054Z,13.75
2019-03-31T00:03:59.630Z,14.68
2019-03-31T00:06:27.922Z,14.38
2019-03-31T00:08:57.535Z,13.45
2019-03-31T00:11:25.809Z,14.00
2019-03-31T00:13:54.083Z,12.73
2019-03-31T00:16:22.365Z,12.95
2019-03-31T00:18:50.625Z,12.98
2019-03-31T00:21:18.985Z,12.23
2019-03-31T00:23:47.239Z,12.63
2019-03-31T00:26:18.305Z,12.70
2019-03-31T00:28:46.557Z,13.32
2019-03-31T00:31:22.111Z,13.10
2019-03-31T00:33:44.895Z,13.13
2019-03-31T00:36:13.182Z,13.38
2019-03-31T00:38:41.433Z,13.68
2019-03-31T00:41:09.846Z,13.18
2019-03-31T00:43:38.151Z,12.40
2019-03-31T00:46:06.420Z,13.25
2019-03-31T00:48:34.657Z,12.47
2019-03-31T00:51:02.935Z,12.68
2019-03-31T00:53:32.823Z,13.00
2019-03-31T00:56:01.121Z,12.37
2019-03-31T00:58:29.416Z,11.93
2019-03-31T01:00:59.401Z,12.45
2019-03-31T01:03:27.825Z,13.53
2019-03-31T01:05:56.067Z,12.50
2019-03-31T01:08:25.658Z,12.25
2019-03-31T01:10:53.989Z,12.35
2019-03-31T01:13:22.323Z,12.28
2019-03-31T01:15:51.131Z,12.80
2019-03-31T01:18:19.410Z,12.50
2019-03-31T01:20:47.734Z,13.10
2019-03-31T01:23:16.003Z,11.28
2019-03-31T01:25:44.261Z,12.47
2019-03-31T01:28:12.535Z,12.10
2019-03-31T01:30:40.910Z,12.50
2019-03-31T01:33:09.231Z,11.48
2019-03-31T01:35:37.513Z,11.80
2019-03-31T01:38:05.793Z,11.73
2019-03-31T01:40:34.050Z,11.73
2019-03-31T01:43:02.350Z,11.80
2019-03-31T01:45:30.606Z,11.57
2019-03-31T01:47:58.859Z,11.15
2019-03-31T01:50:27.211Z,11.35
2019-03-31T01:52:55.460Z,11.40
2019-03-31T01:55:23.811Z,11.30
2019-03-31T01:57:52.076Z,11.85
2019-03-31T02:00:25.202Z,11.85
2019-03-31T02:05:21.161Z,11.80
2019-03-31T02:07:49.422Z,11.15
2019-03-31T02:10:17.888Z,11.73
2019-03-31T02:12:46.139Z,11.45
2019-03-31T02:15:14.466Z,11.57
2019-03-31T02:17:42.751Z,11.15
2019-03-31T02:20:11.088Z,11.15
2019-03-31T02:22:39.355Z,10.68
2019-03-31T02:25:07.599Z,10.32
2019-03-31T02:27:35.949Z,10.68
2019-03-31T02:30:05.821Z,10.88
2019-03-31T02:32:34.111Z,10.58
2019-03-31T02:35:02.381Z,10.80
2019-03-31T02:37:30.699Z,10.35
2019-03-31T02:39:58.925Z,9.75
2019-03-31T02:42:27.226Z,10.65
2019-03-31T02:44:55.461Z,10.63
2019-03-31T02:47:23.704Z,11.00
2019-03-31T02:49:52.059Z,11.57
2019-03-31T02:52:20.373Z,10.38
2019-03-31T02:54:48.649Z,10.03
2019-03-31T02:57:17.007Z,10.30
2019-03-31T02:59:45.290Z,9.50
2019-03-31T03:02:14.094Z,9.93
2019-03-31T03:04:42.506Z,9.33
2019-03-31T03:07:10.748Z,9.63
2019-03-31T03:09:39.034Z,9.98
2019-03-31T03:12:09.137Z,9.30
2019-03-31T03:14:37.696Z,9.18
2019-03-31T03:17:06.042Z,9.85
2019-03-31T03:19:34.313Z,9.73
2019-03-31T03:22:02.570Z,9.93
2019-03-31T03:24:30.815Z,9.03
2019-03-31T03:26:59.234Z,9.15
2019-03-31T03:29:27.491Z,8.40
2019-03-31T03:31:55.729Z,9.08
2019-03-31T03:34:24.022Z,9.53
2019-03-31T03:36:52.304Z,9.40
2019-03-31T03:39:20.568Z,9.43
2019-03-31T03:41:48.895Z,8.88
2019-03-31T03:44:17.160Z,9.18
2019-03-31T03:46:45.417Z,9.55
2019-03-31T03:49:13.719Z,9.38
2019-03-31T03:51:42.270Z,9.20
2019-03-31T03:54:10.590Z,9.20
2019-03-31T03:56:38.851Z,9.28
2019-03-31T03:59:07.179Z,9.43
2019-03-31T04:01:35.550Z,8.85
2019-03-31T04:04:03.855Z,9.65
2019-03-31T04:06:32.132Z,8.68
2019-03-31T04:09:00.407Z,8.55
2019-03-31T04:11:28.740Z,8.58
2019-03-31T04:13:57.108Z,8.55
2019-03-31T04:16:25.412Z,8.85
2019-03-31T04:18:53.647Z,9.28
2019-03-31T04:21:21.899Z,9.28
2019-03-31T04:23:50.166Z,8.75
2019-03-31T04:26:18.492Z,9.25
2019-03-31T04:28:46.786Z,9.38
2019-03-31T04:31:15.060Z,8.90
2019-03-31T04:33:51.401Z,9.03
2019-03-31T04:36:13.321Z,9.55
2019-03-31T04:38:41.638Z,9.50
2019-03-31T04:41:09.880Z,10.05
2019-03-31T04:43:38.155Z,9.70
2019-03-31T04:46:06.386Z,8.80
2019-03-31T04:48:34.656Z,9.78
2019-03-31T04:51:02.894Z,9.63
2019-03-31T04:53:31.161Z,9.18
2019-03-31T04:55:59.425Z,9.43
2019-03-31T04:58:27.676Z,9.40
2019-03-31T05:00:55.935Z,9.08
2019-03-31T05:03:24.188Z,9.73
2019-03-31T05:05:52.457Z,9.75
2019-03-31T05:08:20.691Z,9.23
2019-03-31T05:10:48.977Z,8.65
2019-03-31T05:13:17.216Z,8.95
2019-03-31T05:15:45.462Z,9.48
2019-03-31T05:18:13.703Z,8.70
2019-03-31T05:20:41.970Z,9.33
2019-03-31T05:23:10.227Z,8.73
2019-03-31T05:25:38.465Z,9.03
2019-03-31T05:28:06.894Z,8.48
2019-03-31T05:30:35.223Z,8.95
2019-03-31T05:33:03.656Z,9.00
2019-03-31T05:35:31.905Z,8.73
2019-03-31T05:38:00.219Z,9.40
2019-03-31T05:40:30.702Z,8.73
2019-03-31T05:42:58.443Z,9.35
2019-03-31T05:45:26.674Z,9.28
2019-03-31T05:47:54.923Z,8.68
2019-03-31T05:50:23.180Z,9.65
2019-03-31T05:52:51.442Z,9.90
2019-03-31T05:55:19.706Z,10.32
2019-03-31T05:57:47.971Z,9.35
2019-03-31T06:00:19.515Z,9.80
2019-03-31T06:02:47.883Z,10.32
2019-03-31T06:05:16.152Z,9.30
2019-03-31T06:07:44.475Z,9.35
2019-03-31T06:10:12.750Z,9.20
2019-03-31T06:12:41.005Z,9.98
2019-03-31T06:15:09.352Z,9.20
2019-03-31T06:17:37.583Z,8.60
2019-03-31T06:20:06.718Z,9.05
2019-03-31T06:22:34.988Z,8.10
2019-03-31T06:25:03.286Z,8.78
2019-03-31T06:27:31.611Z,9.38
2019-03-31T06:29:59.900Z,9.50
2019-03-31T06:32:28.143Z,8.83
2019-03-31T06:34:56.403Z,9.23
2019-03-31T06:37:24.697Z,8.58
2019-03-31T06:39:52.970Z,8.95
2019-03-31T06:42:21.256Z,9.00
2019-03-31T06:44:49.573Z,8.35
2019-03-31T06:47:17.852Z,8.98
2019-03-31T06:49:46.122Z,8.40
2019-03-31T06:52:14.350Z,9.75
2019-03-31T06:54:42.613Z,8.70
2019-03-31T06:57:10.847Z,9.45
2019-03-31T06:59:39.101Z,8.83
2019-03-31T07:02:07.375Z,9.15
2019-03-31T07:04:35.679Z,9.20
2019-03-31T07:07:03.922Z,9.35
2019-03-31T07:09:32.183Z,9.53
2019-03-31T07:12:00.456Z,9.10
2019-03-31T07:14:28.714Z,9.40
2019-03-31T07:16:56.981Z,9.75
2019-03-31T07:19:27.051Z,9.23
2019-03-31T07:21:55.344Z,8.93
2019-03-31T07:24:23.627Z,11.05
2019-03-31T07:26:51.896Z,9.98
2019-03-31T07:29:20.153Z,14.58
2019-03-31T07:31:48.395Z,10.23
2019-03-31T07:34:16.650Z,9.93
2019-03-31T07:36:44.904Z,10.80
2019-03-31T07:39:13.174Z,11.93
2019-03-31T07:41:41.545Z,9.80
2019-03-31T07:44:09.898Z,9.08
2019-03-31T07:46:38.125Z,8.80
2019-03-31T07:49:06.424Z,9.70
2019-03-31T07:51:37.454Z,9.03
2019-03-31T07:54:04.688Z,9.50
2019-03-31T07:56:32.966Z,11.28
2019-03-31T07:59:01.371Z,11.08
2019-03-31T08:01:29.705Z,10.20
2019-03-31T08:03:57.956Z,9.88
2019-03-31T08:06:26.194Z,10.45
2019-03-31T08:08:54.470Z,11.05
2019-03-31T08:11:22.772Z,11.12
2019-03-31T08:13:51.055Z,12.00
2019-03-31T08:16:19.309Z,12.82
2019-03-31T08:18:47.606Z,11.55
2019-03-31T08:21:15.846Z,12.30
2019-03-31T08:23:44.172Z,13.45
2019-03-31T08:26:12.430Z,11.75
2019-03-31T08:28:40.696Z,13.03
2019-03-31T08:31:09.020Z,12.73
2019-03-31T08:33:37.426Z,13.80
2019-03-31T08:36:05.699Z,14.33
2019-03-31T08:38:34.029Z,14.28
2019-03-31T08:41:02.423Z,13.22
2019-03-31T08:43:30.735Z,14.00
2019-03-31T08:45:59.005Z,18.20
2019-03-31T08:48:27.267Z,14.80
2019-03-31T08:50:55.529Z,15.08
2019-03-31T08:53:23.800Z,15.48
2019-03-31T08:55:52.101Z,13.95
2019-03-31T08:58:20.415Z,15.00
2019-03-31T09:00:53.362Z,15.13
2019-03-31T09:03:21.622Z,15.80
2019-03-31T09:06:01.090Z,16.10
2019-03-31T09:08:19.920Z,15.20
2019-03-31T09:10:48.164Z,15.90
2019-03-31T09:13:16.426Z,17.82
2019-03-31T09:15:44.685Z,16.20
2019-03-31T09:18:12.995Z,17.80
2019-03-31T09:20:41.296Z,16.85
2019-03-31T09:23:09.623Z,16.40
2019-03-31T09:25:37.920Z,17.73
2019-03-31T09:28:06.254Z,16.48
2019-03-31T09:30:34.554Z,17.57
2019-03-31T09:33:03.006Z,16.95
2019-03-31T09:35:31.274Z,17.20
2019-03-31T09:37:59.810Z,16.27
2019-03-31T09:40:28.069Z,15.58
2019-03-31T09:42:56.413Z,14.75
2019-03-31T09:45:25.130Z,11.90
2019-03-31T09:47:53.624Z,11.93
2019-03-31T09:50:22.119Z,14.25
2019-03-31T09:52:50.686Z,14.95
2019-03-31T09:55:18.981Z,16.12
2019-03-31T09:57:47.315Z,14.30
2019-03-31T10:00:18.510Z,11.50
2019-03-31T10:02:46.913Z,11.55
2019-03-31T10:08:02.647Z,10.18
2019-03-31T10:10:32.315Z,11.73
2019-03-31T10:13:00.723Z,10.35
2019-03-31T10:15:28.977Z,8.23
2019-03-31T10:17:57.237Z,9.00
2019-03-31T10:20:25.540Z,10.58
2019-03-31T10:22:54.507Z,9.83
2019-03-31T10:25:22.814Z,8.75
2019-03-31T10:27:51.098Z,9.83
2019-03-31T10:30:34.603Z,9.88
2019-03-31T10:33:04.594Z,9.75
2019-03-31T10:35:38.959Z,8.95
2019-03-31T10:38:07.278Z,16.82
2019-03-31T10:40:39.222Z,17.60
2019-03-31T10:43:09.045Z,9.83
2019-03-31T10:45:37.381Z,10.55
2019-03-31T10:48:19.188Z,10.82
2019-03-31T10:50:35.656Z,9.80
2019-03-31T10:53:03.973Z,9.13
2019-03-31T10:55:31.995Z,9.60
2019-03-31T10:58:00.238Z,8.98
2019-03-31T11:00:33.120Z,8.13
2019-03-31T11:05:30.557Z,7.75
2019-03-31T11:07:58.827Z,11.35
2019-03-31T11:10:27.080Z,11.30
2019-03-31T11:12:55.365Z,11.75
2019-03-31T11:15:23.678Z,11.60
2019-03-31T11:17:51.955Z,9.15
2019-03-31T11:20:20.247Z,11.35
2019-03-31T11:22:50.167Z,10.45
2019-03-31T11:25:22.113Z,9.53
2019-03-31T11:27:49.042Z,8.68
2019-03-31T11:30:17.667Z,9.60
2019-03-31T11:32:45.984Z,10.10
2019-03-31T11:35:14.247Z,8.95
2019-03-31T11:37:42.488Z,9.35
2019-03-31T11:40:10.830Z,8.50
2019-03-31T11:42:39.191Z,9.48
2019-03-31T11:45:07.502Z,10.18
2019-03-31T11:47:35.853Z,11.18
2019-03-31T11:50:05.951Z,10.58
2019-03-31T11:52:34.227Z,5.60
2019-03-31T11:55:02.561Z,10.70
2019-03-31T11:57:30.734Z,17.92
2019-03-31T12:00:00.643Z,12.90
2019-03-31T12:02:28.976Z,12.95
2019-03-31T12:04:59.982Z,10.03
2019-03-31T12:07:28.728Z,9.65
2019-03-31T12:09:57.280Z,9.18
2019-03-31T12:12:25.547Z,10.78
2019-03-31T12:15:00.291Z,9.13
2019-03-31T12:17:23.894Z,8.93
2019-03-31T12:22:39.769Z,9.43
2019-03-31T12:25:10.625Z,9.43
2019-03-31T12:30:29.242Z,26.80
2019-03-31T12:32:58.133Z,13.38
2019-03-31T12:35:26.467Z,10.25
2019-03-31T12:37:54.744Z,10.40
2019-03-31T12:40:36.260Z,9.70
2019-03-31T12:43:06.659Z,9.00
2019-03-31T12:45:37.150Z,9.85
2019-03-31T12:48:05.189Z,9.00
2019-03-31T12:50:37.386Z,9.70
2019-03-31T12:53:05.636Z,10.03
2019-03-31T12:55:33.920Z,9.25
2019-03-31T12:58:02.260Z,9.83
2019-03-31T13:00:30.517Z,9.58
2019-03-31T13:02:58.816Z,9.48
2019-03-31T13:05:27.083Z,8.85
2019-03-31T13:07:56.970Z,9.35
2019-03-31T13:10:26.718Z,9.50
2019-03-31T13:12:55.073Z,9.60
2019-03-31T13:15:23.383Z,10.28
2019-03-31T13:17:51.781Z,10.45
2019-03-31T13:20:20.080Z,9.03
2019-03-31T13:22:48.391Z,9.38
2019-03-31T13:25:16.650Z,9.50
2019-03-31T13:27:44.920Z,8.80
2019-03-31T13:30:13.301Z,9.08
2019-03-31T13:32:41.677Z,8.73
2019-03-31T13:35:09.974Z,9.10
2019-03-31T13:37:38.217Z,9.53
2019-03-31T13:40:07.346Z,8.65
2019-03-31T13:42:35.709Z,8.90
2019-03-31T13:45:05.988Z,9.28
2019-03-31T13:47:34.288Z,9.58
2019-03-31T13:50:02.639Z,9.00
2019-03-31T13:52:30.909Z,7.92
2019-03-31T13:54:59.223Z,9.20
2019-03-31T13:57:28.515Z,8.98
2019-03-31T13:59:57.535Z,8.28
2019-03-31T14:02:25.839Z,8.93
2019-03-31T14:04:54.109Z,10.75
2019-03-31T14:07:22.390Z,10.35
2019-03-31T14:09:50.644Z,9.35
2019-03-31T14:12:18.899Z,9.75
2019-03-31T14:14:47.228Z,9.78
2019-03-31T14:17:15.492Z,9.43
2019-03-31T14:19:43.895Z,8.95
2019-03-31T14:22:12.148Z,8.90
2019-03-31T14:24:40.434Z,13.88
2019-03-31T14:27:08.754Z,9.65
2019-03-31T14:29:37.020Z,8.73
2019-03-31T14:32:05.267Z,9.18
2019-03-31T14:34:33.528Z,9.73
2019-03-31T14:37:01.777Z,10.48
2019-03-31T14:39:29.787Z,9.70
2019-03-31T14:41:58.061Z,9.70
2019-03-31T14:44:26.304Z,9.93
2019-03-31T14:46:54.560Z,10.40
2019-03-31T14:49:25.752Z,10.30
2019-03-31T14:51:52.855Z,10.82
2019-03-31T14:54:21.162Z,10.88
2019-03-31T14:56:49.414Z,11.22
2019-03-31T14:59:17.681Z,11.33
2019-03-31T15:01:45.919Z,10.65
2019-03-31T15:04:14.232Z,10.60
2019-03-31T15:06:42.508Z,10.63
2019-03-31T15:09:10.780Z,10.63
2019-03-31T15:11:39.045Z,10.75
2019-03-31T15:14:07.306Z,10.32
2019-03-31T15:16:35.573Z,11.00
2019-03-31T15:19:03.830Z,11.35
2019-03-31T15:21:32.117Z,10.72
2019-03-31T15:24:00.392Z,10.93
2019-03-31T15:26:28.656Z,11.25
2019-03-31T15:28:56.914Z,11.55
2019-03-31T15:31:25.276Z,11.70
2019-03-31T15:33:53.625Z,12.37
2019-03-31T15:36:22.815Z,12.30
2019-03-31T15:38:51.091Z,12.13
2019-03-31T15:41:21.299Z,13.00
2019-03-31T15:43:49.332Z,20.30
2019-03-31T15:46:17.592Z,13.10
2019-03-31T15:48:45.861Z,11.90
2019-03-31T15:51:14.118Z,12.37
2019-03-31T15:53:42.386Z,11.83
2019-03-31T15:56:10.663Z,13.25
2019-03-31T15:58:38.925Z,12.80
2019-03-31T16:01:07.196Z,12.00
2019-03-31T16:03:37.103Z,10.78
2019-03-31T16:06:05.423Z,10.93
2019-03-31T16:08:33.780Z,11.57
2019-03-31T16:11:04.825Z,10.90
2019-03-31T16:13:32.109Z,11.48
2019-03-31T16:16:00.365Z,11.88
2019-03-31T16:18:28.643Z,12.33
2019-03-31T16:20:57.365Z,11.48
2019-03-31T16:23:25.621Z,13.22
2019-03-31T16:25:58.211Z,17.60
2019-03-31T16:28:26.525Z,20.30
2019-03-31T16:30:54.887Z,12.65
2019-03-31T16:33:23.227Z,13.08
2019-03-31T16:35:51.551Z,12.03
2019-03-31T16:38:20.723Z,12.80
2019-03-31T16:40:49.112Z,13.45
2019-03-31T16:43:17.528Z,15.32
2019-03-31T16:45:45.850Z,17.80
2019-03-31T16:48:14.232Z,14.15
2019-03-31T16:50:42.496Z,14.33
2019-03-31T16:53:10.804Z,12.28
2019-03-31T16:55:39.099Z,12.60
2019-03-31T16:58:09.445Z,11.55
2019-03-31T17:00:37.342Z,12.18
2019-03-31T17:03:05.633Z,11.90
2019-03-31T17:05:33.875Z,12.20
2019-03-31T17:08:02.167Z,11.25
2019-03-31T17:10:30.406Z,11.85
2019-03-31T17:12:58.658Z,11.65
2019-03-31T17:15:26.911Z,10.40
2019-03-31T17:17:55.194Z,10.68
2019-03-31T17:20:23.534Z,11.05
2019-03-31T17:22:51.783Z,11.85
2019-03-31T17:25:20.113Z,14.87
2019-03-31T17:27:48.368Z,12.95
2019-03-31T17:30:16.638Z,12.82
2019-03-31T17:32:44.937Z,12.07
2019-03-31T17:35:13.188Z,12.00
2019-03-31T17:37:41.453Z,12.55
2019-03-31T17:40:09.774Z,11.70
2019-03-31T17:42:38.013Z,12.45
2019-03-31T17:45:06.860Z,11.93
2019-03-31T17:47:35.110Z,12.15
2019-03-31T17:50:03.908Z,12.30
2019-03-31T17:52:32.170Z,12.65
2019-03-31T17:55:00.419Z,13.18
2019-03-31T17:57:28.673Z,12.95
2019-03-31T17:59:56.953Z,12.80
2019-03-31T18:02:25.217Z,12.80
2019-03-31T18:04:53.620Z,12.78
2019-03-31T18:07:21.878Z,25.75
2019-03-31T18:09:50.121Z,23.92
2019-03-31T18:12:18.380Z,21.62
2019-03-31T18:14:46.651Z,16.70
2019-03-31T18:17:14.908Z,16.55
2019-03-31T18:19:43.158Z,16.87
2019-03-31T18:22:16.745Z,14.90
2019-03-31T18:24:43.060Z,21.42
2019-03-31T18:27:13.642Z,37.17
2019-03-31T18:29:41.397Z,31.05
2019-03-31T18:32:09.703Z,26.27
2019-03-31T18:34:37.992Z,21.55
2019-03-31T18:37:06.331Z,17.17
2019-03-31T18:39:34.604Z,17.82
2019-03-31T18:42:02.886Z,21.25
2019-03-31T18:44:31.217Z,26.02
2019-03-31T18:46:59.480Z,23.65
2019-03-31T18:49:27.773Z,21.40
2019-03-31T18:51:56.073Z,26.73
2019-03-31T18:54:35.002Z,30.55
2019-03-31T18:57:10.701Z,17.98
2019-03-31T18:59:56.809Z,15.90
2019-03-31T19:02:26.708Z,15.83
2019-03-31T19:05:08.797Z,14.43
2019-03-31T19:07:38.711Z,15.20
2019-03-31T19:10:24.141Z,15.53
2019-03-31T19:12:59.893Z,16.40
2019-03-31T19:15:38.880Z,16.50
2019-03-31T19:18:11.660Z,20.40
2019-03-31T19:20:41.768Z,23.73
2019-03-31T19:23:11.727Z,19.23
2019-03-31T19:25:44.759Z,18.87
2019-03-31T19:30:55.913Z,23.67
2019-03-31T19:33:34.795Z,23.25
2019-03-31T19:36:07.813Z,26.33
2019-03-31T19:38:43.602Z,35.20
2019-03-31T19:41:16.214Z,19.67
2019-03-31T19:44:04.519Z,17.65
2019-03-31T19:46:46.446Z,15.80
2019-03-31T19:49:28.628Z,16.62
2019-03-31T19:52:07.861Z,16.62
2019-03-31T19:54:40.693Z,16.67
2019-03-31T19:57:18.649Z,17.00
2019-03-31T20:00:04.693Z,17.20
2019-03-31T20:02:46.957Z,17.57
2019-03-31T20:05:28.758Z,17.27
2019-03-31T20:08:04.338Z,17.05
2019-03-31T20:10:46.200Z,17.10
2019-03-31T20:13:28.149Z,17.15
2019-03-31T20:16:02.659Z,17.23
2019-03-31T20:18:41.991Z,16.82
2019-03-31T20:21:31.062Z,17.32
2019-03-31T20:27:00.772Z,21.15
2019-03-31T20:29:36.809Z,17.95
2019-03-31T20:32:21.722Z,17.02
2019-03-31T20:34:51.627Z,17.60
2019-03-31T20:37:21.526Z,17.77
2019-03-31T20:40:08.087Z,16.12
2019-03-31T20:42:38.103Z,17.55
2019-03-31T20:45:07.592Z,16.97
2019-03-31T20:47:36.001Z,18.37
2019-03-31T20:50:06.122Z,17.77
2019-03-31T20:52:34.382Z,16.90
2019-03-31T20:55:15.645Z,17.85
2019-03-31T20:57:32.716Z,16.37
2019-03-31T21:00:01.020Z,18.27
2019-03-31T21:02:29.324Z,17.35
2019-03-31T21:04:57.562Z,17.70
2019-03-31T21:07:25.838Z,18.67
2019-03-31T21:09:54.115Z,18.12
2019-03-31T21:12:22.379Z,17.73
2019-03-31T21:14:50.637Z,18.82
2019-03-31T21:17:18.899Z,17.45
2019-03-31T21:19:47.338Z,18.85
2019-03-31T21:22:15.588Z,18.50
2019-03-31T21:24:43.826Z,19.52
2019-03-31T21:27:12.105Z,19.10
2019-03-31T21:29:40.406Z,19.52
2019-03-31T21:32:08.708Z,18.87
2019-03-31T21:34:36.957Z,19.17
2019-03-31T21:37:06.725Z,19.67
2019-03-31T21:39:34.954Z,19.42
2019-03-31T21:42:03.202Z,19.50
2019-03-31T21:44:31.536Z,19.70
2019-03-31T21:46:59.831Z,22.20
2019-03-31T21:49:28.080Z,28.47
2019-03-31T21:51:56.343Z,18.95
2019-03-31T21:54:24.585Z,16.57
2019-03-31T21:56:52.969Z,17.35
2019-03-31T21:59:21.277Z,17.25
2019-03-31T22:01:49.601Z,17.02
2019-03-31T22:04:18.553Z,16.93
2019-03-31T22:06:46.807Z,16.05
2019-03-31T22:09:20.757Z,16.97
2019-03-31T22:11:52.310Z,18.10
2019-03-31T22:14:22.950Z,15.15
2019-03-31T22:16:54.131Z,15.43
2019-03-31T22:19:22.532Z,15.20
2019-03-31T22:21:50.792Z,14.30
2019-03-31T22:24:19.062Z,14.35
2019-03-31T22:26:47.324Z,15.00
2019-03-31T22:29:15.583Z,14.85
2019-03-31T22:31:43.840Z,13.98
2019-03-31T22:34:12.116Z,14.23
2019-03-31T22:36:40.389Z,14.03
2019-03-31T22:39:08.829Z,13.65
2019-03-31T22:41:37.067Z,14.10
2019-03-31T22:44:05.445Z,13.90
2019-03-31T22:46:33.942Z,13.95
2019-03-31T22:49:02.231Z,13.70
2019-03-31T22:51:30.500Z,14.35
2019-03-31T22:53:58.754Z,14.78
2019-03-31T22:56:27.034Z,15.25
2019-03-31T22:58:55.280Z,15.08
2019-03-31T23:01:23.572Z,14.33
2019-03-31T23:03:51.847Z,15.25
2019-03-31T23:06:20.147Z,15.63
2019-03-31T23:08:48.384Z,14.70
2019-03-31T23:11:16.632Z,15.80
2019-03-31T23:13:44.922Z,15.85
2019-03-31T23:16:13.149Z,16.00
2019-03-31T23:18:41.458Z,15.32
2019-03-31T23:21:09.767Z,15.78
2019-03-31T23:23:38.021Z,16.27
2019-03-31T23:26:06.289Z,16.85
2019-03-31T23:28:36.185Z,16.42
2019-03-31T23:31:04.443Z,16.07
2019-03-31T23:33:32.720Z,16.50
2019-03-31T23:36:00.963Z,17.23
2019-03-31T23:38:29.256Z,16.97
2019-03-31T23:40:57.517Z,16.62
2019-03-31T23:43:25.754Z,17.60
2019-03-31T23:45:54.014Z,16.67
2019-03-31T23:48:22.282Z,15.72
2019-03-31T23:50:50.558Z,16.85
2019-03-31T23:53:18.834Z,16.97
2019-03-31T23:55:47.173Z,17.20
2019-03-31T23:58:15.507Z,17.48
